Lutesville, Missouri
Current Conditions -  °F | °C
As of 11:53 AM on Friday 24 Oct 2014 (Local Time) from KCGI Reporting Station
Broken Clouds Broken Clouds  
Wind Chill: 62°   Ceiling: 1800
Heat Index: 62°   Visibility: 10mi
Dew Point: 53°   Wind: 3mph
Humidity: 72%   Direction: 320°NW
Pressure: 30.14"   Gusts: NA
Location:  37.2968°N, 89.9579°W
Report Text: KCGI 241653Z 32003KT 10SM BKN018 BKN024 17/12 A3014 RMK AO2 SLP205 T01670117
Loading
Personal Weather Stations






























Interactive Weather Map
Tropical Storm Tracking
New forecast layout! Learn more

10-Day Weather Forecast

Advertisements
Track Severe Weather on mobile